Time;durP1;ratioP1;P1;durP2;ratioP2;P2;SDS_P1;SDS_P2;PMS_P1;PMS_P2;Temp;Humidity;BMP_temperature;BMP_pressure;BME280_temperature;BME280_humidity;BME280_pressure;Samples;Min_cycle;Max_cycle;Signal;HPM_P1;HPM_P2
2022/05/27 00:00:32;;;;;;;;;;;28.10;40.50;;;;;;5119889;28;1243;-45
2022/05/27 00:02:59;;;;;;;;;;;28.10;40.50;;;;;;5118899;28;911;-45
2022/05/27 00:05:26;;;;;;;;;;;28.10;40.40;;;;;;5118981;28;996;-45
2022/05/27 00:07:52;;;;;;;;;;;28.10;40.00;;;;;;5119532;28;929;-44
2022/05/27 00:10:19;;;;;;;;;;;28.10;40.20;;;;;;5119478;28;981;-45
2022/05/27 00:12:46;;;;;;;;;;;28.20;40.10;;;;;;5118372;28;1853;-45
2022/05/27 00:15:13;;;;;;;;;;;28.10;40.10;;;;;;5118416;28;1974;-46
2022/05/27 00:17:41;;;;;;;;;;;28.20;40.00;;;;;;5118450;28;1016;-44
2022/05/27 00:20:08;;;;;;;;;;;28.10;40.10;;;;;;5119882;28;962;-45
2022/05/27 00:22:35;;;;;;;;;;;28.20;39.80;;;;;;5119662;28;997;-45
2022/05/27 00:25:02;;;;;;;;;;;28.20;39.80;;;;;;5119869;28;929;-45
2022/05/27 00:27:29;;;;;;;;;;;28.20;39.70;;;;;;5119484;28;940;-45
2022/05/27 00:29:56;;;;;;;;;;;28.10;39.50;;;;;;5119952;28;937;-45
2022/05/27 00:32:23;;;;;;;;;;;28.10;39.50;;;;;;5119268;28;972;-45
2022/05/27 00:34:51;;;;;;;;;;;28.10;39.50;;;;;;5118577;28;1976;-45
2022/05/27 00:37:17;;;;;;;;;;;28.20;39.50;;;;;;5118562;28;991;-45
2022/05/27 00:39:44;;;;;;;;;;;28.20;39.50;;;;;;5120392;28;1003;-44
2022/05/27 00:42:11;;;;;;;;;;;28.20;39.70;;;;;;5119564;28;853;-45
2022/05/27 00:44:38;;;;;;;;;;;28.20;39.60;;;;;;5119672;28;952;-44
2022/05/27 00:47:07;;;;;;;;;;;28.20;39.50;;;;;;5119954;28;1804;-44
2022/05/27 00:49:44;;;;;;;;;;;28.20;39.60;;;;;;5119823;28;1008;-44
2022/05/27 00:52:14;;;;;;;;;;;28.20;39.40;;;;;;5118858;28;929;-45
2022/05/27 00:54:41;;;;;;;;;;;28.20;39.50;;;;;;5118391;28;1914;-45
2022/05/27 00:57:10;;;;;;;;;;;28.20;39.40;;;;;;5118237;28;952;-44
2022/05/27 00:59:39;;;;;;;;;;;28.20;39.50;;;;;;5118097;28;1185;-44
2022/05/27 01:02:06;;;;;;;;;;;28.20;39.30;;;;;;5118632;28;1809;-45
2022/05/27 01:04:33;;;;;;;;;;;28.20;39.50;;;;;;5117539;28;1011;-45
2022/05/27 01:06:59;;;;;;;;;;;28.20;39.30;;;;;;5118349;28;972;-44
2022/05/27 01:09:29;;;;;;;;;;;28.20;39.20;;;;;;5117601;28;932;-45
2022/05/27 01:12:05;;;;;;;;;;;28.30;39.20;;;;;;5117041;28;1015;-44
2022/05/27 01:14:38;;;;;;;;;;;28.30;39.20;;;;;;5117265;28;1984;-44
2022/05/27 01:17:08;;;;;;;;;;;28.20;39.20;;;;;;5116694;28;948;-45
2022/05/27 01:20:18;;;;;;;;;;;28.20;39.20;;;;;;5116104;28;999;-44
2022/05/27 01:22:47;;;;;;;;;;;28.20;39.20;;;;;;5097786;28;1008;-45
2022/05/27 01:25:32;;;;;;;;;;;28.20;39.10;;;;;;5118438;28;1023;-43
2022/05/27 01:28:13;;;;;;;;;;;28.20;39.10;;;;;;5118472;28;936;-43
2022/05/27 01:30:43;;;;;;;;;;;28.20;39.00;;;;;;5118141;28;986;-41
2022/05/27 01:33:20;;;;;;;;;;;28.10;39.00;;;;;;5117936;28;980;-43
2022/05/27 01:35:50;;;;;;;;;;;28.20;39.00;;;;;;5117927;28;1909;-43
2022/05/27 01:38:20;;;;;;;;;;;28.10;39.10;;;;;;5118025;28;1051;-41
2022/05/27 01:40:51;;;;;;;;;;;28.00;39.20;;;;;;5116916;28;1178;-42
2022/05/27 01:43:19;;;;;;;;;;;28.10;39.10;;;;;;5117228;28;1020;-39
2022/05/27 01:45:51;;;;;;;;;;;28.10;39.20;;;;;;5116970;28;936;-42
2022/05/27 01:48:20;;;;;;;;;;;28.10;39.20;;;;;;5117357;28;932;-42
2022/05/27 01:50:52;;;;;;;;;;;28.00;39.20;;;;;;5117351;28;901;-40
2022/05/27 01:53:20;;;;;;;;;;;28.00;39.30;;;;;;5118154;28;928;-42
2022/05/27 01:55:49;;;;;;;;;;;27.90;39.40;;;;;;5117656;28;1988;-42
2022/05/27 01:58:20;;;;;;;;;;;27.90;39.30;;;;;;5117194;28;1014;-43
2022/05/27 02:00:49;;;;;;;;;;;28.00;39.20;;;;;;5117878;28;975;-41
2022/05/27 02:03:18;;;;;;;;;;;27.90;39.30;;;;;;5117216;28;1011;-42
2022/05/27 02:05:49;;;;;;;;;;;27.90;39.50;;;;;;5116881;28;987;-41
2022/05/27 02:08:17;;;;;;;;;;;27.90;39.60;;;;;;5116944;28;944;-43
2022/05/27 02:10:47;;;;;;;;;;;27.90;39.40;;;;;;5117516;28;940;-42
2022/05/27 02:13:16;;;;;;;;;;;27.90;39.60;;;;;;5116693;28;976;-43
2022/05/27 02:15:45;;;;;;;;;;;27.80;39.70;;;;;;5117303;28;1974;-43
2022/05/27 02:18:17;;;;;;;;;;;27.80;39.50;;;;;;5115691;28;944;-40
2022/05/27 02:20:46;;;;;;;;;;;27.80;39.50;;;;;;5118334;28;992;-39
2022/05/27 02:23:16;;;;;;;;;;;27.80;39.60;;;;;;5116534;28;984;-43
2022/05/27 02:25:44;;;;;;;;;;;27.70;39.50;;;;;;5117118;28;1012;-42
2022/05/27 02:28:13;;;;;;;;;;;27.80;39.70;;;;;;5116469;28;996;-42
2022/05/27 02:31:07;;;;;;;;;;;27.70;39.60;;;;;;5118604;28;1010;-41
2022/05/27 02:36:23;;;;;;;;;;;27.80;39.60;;;;;;5117134;28;2000;-39
2022/05/27 02:38:50;;;;;;;;;;;27.70;39.70;;;;;;5116895;28;940;-43
2022/05/27 02:41:21;;;;;;;;;;;27.70;41.00;;;;;;5117653;28;1099;-41
2022/05/27 02:43:54;;;;;;;;;;;27.70;39.90;;;;;;5117520;28;969;-43
2022/05/27 02:46:25;;;;;;;;;;;27.70;39.90;;;;;;5116099;28;1153;-41
2022/05/27 02:48:56;;;;;;;;;;;27.70;40.00;;;;;;5116966;28;1066;-41
2022/05/27 02:51:25;;;;;;;;;;;27.60;40.00;;;;;;5117046;28;1004;-42
2022/05/27 02:53:54;;;;;;;;;;;27.60;40.00;;;;;;5118015;28;995;-41
2022/05/27 02:56:24;;;;;;;;;;;27.60;40.10;;;;;;5117459;28;1926;-42
2022/05/27 02:58:51;;;;;;;;;;;27.70;40.10;;;;;;5116095;28;1060;-43
2022/05/27 03:01:17;;;;;;;;;;;27.70;40.10;;;;;;5120158;28;1003;-42
2022/05/27 03:03:44;;;;;;;;;;;27.60;40.00;;;;;;5120643;28;979;-41
2022/05/27 03:06:20;;;;;;;;;;;27.60;40.10;;;;;;5120386;28;1016;-40
2022/05/27 03:08:55;;;;;;;;;;;27.60;40.10;;;;;;5120633;28;972;-43
2022/05/27 03:11:25;;;;;;;;;;;27.70;40.00;;;;;;5121129;28;1027;-42
2022/05/27 03:14:04;;;;;;;;;;;27.60;40.00;;;;;;5121102;28;972;-43
2022/05/27 03:16:38;;;;;;;;;;;27.60;40.30;;;;;;5121182;28;1981;-43
2022/05/27 03:19:23;;;;;;;;;;;27.60;40.30;;;;;;5121024;28;958;-39
2022/05/27 03:21:55;;;;;;;;;;;27.60;40.20;;;;;;5121325;28;1747;-43
2022/05/27 03:24:27;;;;;;;;;;;27.60;40.20;;;;;;5121104;28;892;-44
2022/05/27 03:27:00;;;;;;;;;;;27.60;40.10;;;;;;5121119;28;1011;-42
2022/05/27 03:29:30;;;;;;;;;;;27.60;40.20;;;;;;5121283;28;981;-41
2022/05/27 03:32:00;;;;;;;;;;;27.50;40.30;;;;;;5120969;28;1032;-43
2022/05/27 03:34:29;;;;;;;;;;;27.50;40.30;;;;;;5120602;28;944;-40
2022/05/27 03:37:02;;;;;;;;;;;27.50;40.30;;;;;;5120854;28;1989;-42
2022/05/27 03:39:31;;;;;;;;;;;27.50;40.30;;;;;;5120835;28;1028;-43
2022/05/27 03:41:59;;;;;;;;;;;27.50;40.20;;;;;;5119892;28;1004;-42
2022/05/27 03:44:27;;;;;;;;;;;27.60;40.30;;;;;;5120131;28;1003;-41
2022/05/27 03:46:54;;;;;;;;;;;27.50;40.30;;;;;;5120722;28;1023;-42
2022/05/27 03:49:21;;;;;;;;;;;27.50;40.30;;;;;;5120516;28;989;-39
2022/05/27 03:51:51;;;;;;;;;;;27.50;40.50;;;;;;5120379;28;951;-41
2022/05/27 03:54:21;;;;;;;;;;;27.40;40.40;;;;;;5120288;28;964;-39
2022/05/27 03:56:47;;;;;;;;;;;27.50;40.50;;;;;;5119512;28;1988;-40
2022/05/27 03:59:15;;;;;;;;;;;27.50;40.30;;;;;;5119964;28;1180;-40
2022/05/27 04:01:43;;;;;;;;;;;27.50;40.40;;;;;;5119565;28;1007;-39
2022/05/27 04:04:10;;;;;;;;;;;27.50;40.50;;;;;;5119394;28;1019;-40
2022/05/27 04:06:38;;;;;;;;;;;27.50;40.50;;;;;;5119818;28;940;-42
2022/05/27 04:09:05;;;;;;;;;;;27.50;40.60;;;;;;5119911;28;1017;-42
2022/05/27 04:11:33;;;;;;;;;;;27.50;41.70;;;;;;5117928;28;976;-39
2022/05/27 04:14:00;;;;;;;;;;;27.40;40.50;;;;;;5119089;28;1208;-40
2022/05/27 04:16:27;;;;;;;;;;;27.40;40.50;;;;;;5119023;28;1906;-42
2022/05/27 04:18:54;;;;;;;;;;;27.40;40.50;;;;;;5118639;28;1003;-42
2022/05/27 04:21:21;;;;;;;;;;;27.40;40.50;;;;;;5119769;28;877;-45
2022/05/27 04:23:47;;;;;;;;;;;27.40;40.50;;;;;;5118988;28;940;-45
2022/05/27 04:26:14;;;;;;;;;;;27.40;40.50;;;;;;5119371;28;932;-46
2022/05/27 04:28:42;;;;;;;;;;;27.40;40.60;;;;;;5119286;28;961;-45
2022/05/27 04:31:09;;;;;;;;;;;27.50;40.60;;;;;;5118346;28;995;-45
2022/05/27 04:33:35;;;;;;;;;;;27.40;40.50;;;;;;5118083;28;996;-45
2022/05/27 04:36:04;;;;;;;;;;;27.40;40.50;;;;;;5118511;28;1897;-45
2022/05/27 04:38:31;;;;;;;;;;;27.40;40.60;;;;;;5118805;28;921;-46
2022/05/27 04:40:57;;;;;;;;;;;27.40;40.60;;;;;;5118702;28;997;-45
2022/05/27 04:43:25;;;;;;;;;;;27.40;40.60;;;;;;5118619;28;1008;-46
2022/05/27 04:45:52;;;;;;;;;;;27.40;40.60;;;;;;5118252;28;967;-45
2022/05/27 04:48:20;;;;;;;;;;;27.40;40.50;;;;;;5118260;28;1107;-45
2022/05/27 04:50:46;;;;;;;;;;;27.40;40.60;;;;;;5117841;28;980;-46
2022/05/27 04:53:13;;;;;;;;;;;27.40;40.70;;;;;;5118328;28;992;-45
2022/05/27 04:55:41;;;;;;;;;;;27.40;40.70;;;;;;5118103;28;1906;-45
2022/05/27 04:58:08;;;;;;;;;;;27.40;40.70;;;;;;5118382;28;920;-45
2022/05/27 05:00:37;;;;;;;;;;;27.40;40.70;;;;;;5117971;28;1015;-45
2022/05/27 05:03:05;;;;;;;;;;;27.40;40.70;;;;;;5117521;28;1095;-45
2022/05/27 05:05:33;;;;;;;;;;;27.40;40.70;;;;;;5117356;28;988;-45
2022/05/27 05:08:02;;;;;;;;;;;27.30;40.70;;;;;;5117724;28;1019;-45
2022/05/27 05:10:29;;;;;;;;;;;27.30;40.70;;;;;;5117520;28;951;-45
2022/05/27 05:12:56;;;;;;;;;;;27.40;40.70;;;;;;5117990;28;1084;-45
2022/05/27 05:15:23;;;;;;;;;;;27.40;40.80;;;;;;5116966;28;881;-45
2022/05/27 05:17:50;;;;;;;;;;;27.30;40.80;;;;;;5117622;28;1988;-45
2022/05/27 05:20:19;;;;;;;;;;;27.30;40.80;;;;;;5117577;28;1033;-45
2022/05/27 05:22:46;;;;;;;;;;;27.30;40.70;;;;;;5117259;28;896;-45
2022/05/27 05:25:13;;;;;;;;;;;27.30;40.70;;;;;;5116679;28;1024;-45
2022/05/27 05:27:40;;;;;;;;;;;27.30;40.70;;;;;;5117190;28;959;-45
2022/05/27 05:30:08;;;;;;;;;;;27.30;40.80;;;;;;5116564;28;1027;-45
2022/05/27 05:32:35;;;;;;;;;;;27.30;40.80;;;;;;5116787;28;1002;-45
2022/05/27 05:35:02;;;;;;;;;;;27.30;40.80;;;;;;5115625;28;968;-46
2022/05/27 05:37:30;;;;;;;;;;;27.30;40.90;;;;;;5114988;28;1980;-45
2022/05/27 05:39:57;;;;;;;;;;;27.40;40.80;;;;;;5115061;28;933;-45
2022/05/27 05:42:24;;;;;;;;;;;27.40;40.90;;;;;;5114329;28;1004;-45
2022/05/27 05:44:51;;;;;;;;;;;27.30;40.90;;;;;;5115238;28;872;-45
2022/05/27 05:47:18;;;;;;;;;;;27.30;41.00;;;;;;5115893;28;988;-45
2022/05/27 05:49:44;;;;;;;;;;;27.30;40.90;;;;;;5115459;28;1007;-45
2022/05/27 05:52:11;;;;;;;;;;;27.30;41.00;;;;;;5115905;28;928;-46
2022/05/27 05:54:39;;;;;;;;;;;27.30;41.00;;;;;;5115285;28;1047;-46
2022/05/27 05:57:06;;;;;;;;;;;27.30;40.90;;;;;;5114421;28;1909;-45
2022/05/27 05:59:34;;;;;;;;;;;27.30;41.00;;;;;;5114615;28;1019;-45
2022/05/27 06:02:01;;;;;;;;;;;27.30;41.00;;;;;;5114260;28;1051;-46
2022/05/27 06:04:29;;;;;;;;;;;27.50;41.20;;;;;;5115743;28;1016;-46
2022/05/27 06:06:57;;;;;;;;;;;27.40;40.80;;;;;;5116669;28;1045;-46
2022/05/27 06:09:25;;;;;;;;;;;27.40;40.90;;;;;;5117184;28;1020;-46
2022/05/27 06:11:54;;;;;;;;;;;27.30;41.00;;;;;;5117780;28;978;-45
2022/05/27 06:14:21;;;;;;;;;;;27.30;41.10;;;;;;5115961;28;1133;-46
2022/05/27 06:16:48;;;;;;;;;;;27.30;41.20;;;;;;5115955;28;1978;-46
2022/05/27 06:19:15;;;;;;;;;;;27.30;41.10;;;;;;5117048;28;968;-46
2022/05/27 06:21:42;;;;;;;;;;;27.30;41.10;;;;;;5115913;28;1002;-46
2022/05/27 06:24:10;;;;;;;;;;;27.30;41.10;;;;;;5116388;28;976;-45
2022/05/27 06:26:38;;;;;;;;;;;27.30;41.20;;;;;;5115544;28;915;-46
2022/05/27 06:34:35;;;;;;;;;;;27.30;41.00;;;;;;5115780;28;635;-46
2022/05/27 06:37:02;;;;;;;;;;;27.30;41.10;;;;;;5119501;28;1972;-44
2022/05/27 06:39:30;;;;;;;;;;;27.40;41.30;;;;;;5119485;28;960;-35
2022/05/27 06:41:56;;;;;;;;;;;27.30;41.30;;;;;;5118537;28;1781;-39
2022/05/27 06:44:25;;;;;;;;;;;27.30;41.40;;;;;;5119822;28;933;-42
2022/05/27 06:46:52;;;;;;;;;;;27.60;41.00;;;;;;5118486;28;952;-42
2022/05/27 06:49:19;;;;;;;;;;;27.70;41.10;;;;;;5120089;28;1042;-42
2022/05/27 06:51:47;;;;;;;;;;;27.50;41.20;;;;;;5119132;28;996;-42
2022/05/27 06:54:15;;;;;;;;;;;27.40;41.50;;;;;;5120374;28;976;-41
2022/05/27 06:56:43;;;;;;;;;;;27.40;41.60;;;;;;5118590;28;1901;-42
2022/05/27 06:59:10;;;;;;;;;;;27.40;41.70;;;;;;5119187;28;1133;-41
2022/05/27 07:01:39;;;;;;;;;;;27.40;41.50;;;;;;5118100;28;1003;-42
2022/05/27 07:04:06;;;;;;;;;;;27.40;41.40;;;;;;5117255;28;1019;-42
2022/05/27 07:06:34;;;;;;;;;;;27.40;41.50;;;;;;5117850;28;1016;-40
2022/05/27 07:09:05;;;;;;;;;;;27.40;41.50;;;;;;5117835;28;1032;-40
2022/05/27 07:11:32;;;;;;;;;;;27.40;41.40;;;;;;5118571;28;1023;-40
2022/05/27 07:13:59;;;;;;;;;;;27.40;41.40;;;;;;5118243;28;892;-40
2022/05/27 07:16:26;;;;;;;;;;;27.40;41.40;;;;;;5117105;28;1917;-40
2022/05/27 07:18:55;;;;;;;;;;;27.40;41.50;;;;;;5118241;28;1020;-39
2022/05/27 07:21:22;;;;;;;;;;;27.50;41.30;;;;;;5117869;28;1516;-40
2022/05/27 07:23:49;;;;;;;;;;;27.50;41.20;;;;;;5116859;28;1014;-40
2022/05/27 07:26:15;;;;;;;;;;;27.40;41.30;;;;;;5118417;28;980;-37
2022/05/27 07:28:42;;;;;;;;;;;27.50;41.40;;;;;;5118217;28;941;-36
2022/05/27 07:31:10;;;;;;;;;;;27.40;41.30;;;;;;5118635;28;1507;-39
2022/05/27 07:33:38;;;;;;;;;;;27.40;41.30;;;;;;5119147;28;862;-40
2022/05/27 07:36:06;;;;;;;;;;;27.40;41.30;;;;;;5117223;28;971;-39
2022/05/27 07:38:33;;;;;;;;;;;27.40;41.40;;;;;;5117569;28;1902;-37
2022/05/27 07:41:00;;;;;;;;;;;27.50;41.40;;;;;;5117824;28;984;-39
2022/05/27 07:43:26;;;;;;;;;;;27.50;41.30;;;;;;5115525;28;988;-40
2022/05/27 07:45:54;;;;;;;;;;;27.50;41.40;;;;;;5116241;28;864;-39
2022/05/27 07:48:20;;;;;;;;;;;27.50;41.30;;;;;;5116337;28;995;-38
2022/05/27 07:50:47;;;;;;;;;;;27.50;41.20;;;;;;5116229;28;1008;-37
2022/05/27 07:53:15;;;;;;;;;;;27.50;41.40;;;;;;5115707;28;1012;-38
2022/05/27 07:55:42;;;;;;;;;;;27.50;41.30;;;;;;5116506;28;945;-36
2022/05/27 07:58:09;;;;;;;;;;;27.50;41.20;;;;;;5117866;28;1906;-38
2022/05/27 08:00:37;;;;;;;;;;;27.50;41.20;;;;;;5115496;28;1094;-37
2022/05/27 08:03:04;;;;;;;;;;;27.50;41.20;;;;;;5115882;28;929;-39
2022/05/27 08:05:32;;;;;;;;;;;27.50;41.20;;;;;;5115252;28;1007;-37
2022/05/27 08:08:00;;;;;;;;;;;27.50;41.20;;;;;;5114870;28;1017;-39
2022/05/27 08:10:29;;;;;;;;;;;27.50;41.20;;;;;;5114830;28;960;-39
2022/05/27 08:12:56;;;;;;;;;;;27.50;41.40;;;;;;5115068;28;1031;-38
2022/05/27 08:15:23;;;;;;;;;;;27.50;41.40;;;;;;5113982;28;1004;-36
2022/05/27 08:17:50;;;;;;;;;;;27.50;41.40;;;;;;5115981;28;1972;-38
2022/05/27 08:20:18;;;;;;;;;;;27.50;41.20;;;;;;5115491;28;929;-36
2022/05/27 08:22:45;;;;;;;;;;;27.60;41.30;;;;;;5115698;28;1004;-37
2022/05/27 08:25:12;;;;;;;;;;;27.50;41.40;;;;;;5115062;28;1004;-37
2022/05/27 08:27:40;;;;;;;;;;;27.50;41.40;;;;;;5114457;28;1003;-38
2022/05/27 08:30:08;;;;;;;;;;;27.50;41.20;;;;;;5115916;28;1015;-36
2022/05/27 08:32:35;;;;;;;;;;;27.50;41.50;;;;;;5115070;28;998;-36
2022/05/27 08:38:01;;;;;;;;;;;27.50;41.50;;;;;;5115081;28;1910;-39
2022/05/27 08:40:45;;;;;;;;;;;27.50;41.40;;;;;;5114791;28;959;-38
2022/05/27 08:43:18;;;;;;;;;;;27.50;41.50;;;;;;5114748;28;994;-37
2022/05/27 08:45:49;;;;;;;;;;;27.50;41.40;;;;;;5114754;28;1008;-36
2022/05/27 08:48:17;;;;;;;;;;;27.50;41.40;;;;;;5115593;28;965;-36
2022/05/27 08:50:46;;;;;;;;;;;27.50;41.40;;;;;;5114766;28;908;-37
2022/05/27 08:53:15;;;;;;;;;;;27.40;41.20;;;;;;5114115;28;1086;-37
2022/05/27 09:01:18;;;;;;;;;;;27.50;41.00;;;;;;5113547;28;974;-39
2022/05/27 09:03:47;;;;;;;;;;;27.50;41.00;;;;;;5112544;28;999;-37
2022/05/27 09:06:15;;;;;;;;;;;27.40;41.00;;;;;;5111947;28;1040;-36
2022/05/27 09:08:42;;;;;;;;;;;27.40;41.10;;;;;;5114213;28;1019;-38
2022/05/27 09:11:16;;;;;;;;;;;27.40;41.00;;;;;;5114158;28;1000;-38
2022/05/27 09:13:48;;;;;;;;;;;27.40;41.00;;;;;;5091290;28;941;-37
2022/05/27 09:16:17;;;;;;;;;;;27.40;40.90;;;;;;5092476;27;1423;-40
2022/05/27 09:18:49;;;;;;;;;;;27.40;41.00;;;;;;5108891;28;1905;-37
2022/05/27 09:21:22;;;;;;;;;;;27.40;41.00;;;;;;5114732;28;972;-36
2022/05/27 09:24:02;;;;;;;;;;;27.40;41.00;;;;;;5113969;28;1000;-36
2022/05/27 09:26:33;;;;;;;;;;;27.40;41.00;;;;;;5114400;28;944;-37
2022/05/27 09:29:05;;;;;;;;;;;27.40;41.10;;;;;;5113862;28;988;-37
2022/05/27 09:31:35;;;;;;;;;;;27.40;41.30;;;;;;5114488;28;1019;-38
2022/05/27 09:34:02;;;;;;;;;;;27.40;41.10;;;;;;5114207;28;1039;-40
2022/05/27 09:36:34;;;;;;;;;;;27.40;41.10;;;;;;5114675;28;953;-37
2022/05/27 09:39:02;;;;;;;;;;;27.40;41.20;;;;;;5114213;28;1984;-37
2022/05/27 09:41:34;;;;;;;;;;;27.40;41.20;;;;;;5114861;28;991;-38
2022/05/27 09:44:10;;;;;;;;;;;27.40;41.30;;;;;;5113137;28;948;-39
2022/05/27 09:46:37;;;;;;;;;;;27.40;41.20;;;;;;5112911;28;932;-36
2022/05/27 09:49:05;;;;;;;;;;;27.40;41.10;;;;;;5111946;28;1029;-37
2022/05/27 09:51:33;;;;;;;;;;;27.40;41.10;;;;;;5111990;28;972;-36
2022/05/27 09:54:04;;;;;;;;;;;27.40;41.20;;;;;;5112245;28;911;-36
2022/05/27 09:56:36;;;;;;;;;;;27.50;41.20;;;;;;5113524;28;982;-36
2022/05/27 09:59:24;;;;;;;;;;;27.40;41.00;;;;;;5111589;28;1910;-38
2022/05/27 10:01:51;;;;;;;;;;;27.50;41.20;;;;;;5111746;28;976;-39
2022/05/27 10:04:18;;;;;;;;;;;27.40;41.00;;;;;;5112117;28;960;-37
2022/05/27 10:06:45;;;;;;;;;;;27.50;41.00;;;;;;5112730;28;968;-36
2022/05/27 10:09:25;;;;;;;;;;;27.50;41.20;;;;;;5115237;28;976;-37
2022/05/27 10:11:55;;;;;;;;;;;27.50;41.10;;;;;;5117420;28;1709;-36
2022/05/27 10:14:27;;;;;;;;;;;27.50;41.00;;;;;;5101192;28;1418;-37
2022/05/27 10:17:09;;;;;;;;;;;27.50;41.10;;;;;;5098407;28;1527;-37
2022/05/27 10:19:36;;;;;;;;;;;27.50;41.20;;;;;;5096400;28;1913;-38
2022/05/27 10:22:05;;;;;;;;;;;27.50;41.00;;;;;;5097120;28;1052;-40
2022/05/27 10:24:34;;;;;;;;;;;27.50;41.10;;;;;;5095922;28;917;-37
2022/05/27 10:27:02;;;;;;;;;;;27.50;41.10;;;;;;5096246;28;912;-36
2022/05/27 10:29:30;;;;;;;;;;;27.40;41.10;;;;;;5097781;28;842;-36
2022/05/27 10:31:58;;;;;;;;;;;27.50;41.00;;;;;;5097732;28;951;-39
2022/05/27 10:34:38;;;;;;;;;;;27.40;41.10;;;;;;5096700;28;1011;-38
2022/05/27 10:37:06;;;;;;;;;;;27.50;41.20;;;;;;5096173;28;1001;-39
2022/05/27 10:39:37;;;;;;;;;;;27.50;41.20;;;;;;5095572;28;1981;-37
2022/05/27 10:42:10;;;;;;;;;;;27.50;41.20;;;;;;5095548;28;949;-40
2022/05/27 10:44:41;;;;;;;;;;;27.50;41.00;;;;;;5095226;28;952;-37
2022/05/27 10:47:14;;;;;;;;;;;27.50;41.00;;;;;;5094862;28;952;-38
2022/05/27 10:49:50;;;;;;;;;;;27.50;41.00;;;;;;5086239;28;747;-37
2022/05/27 10:52:29;;;;;;;;;;;27.50;42.30;;;;;;5094923;28;887;-37
2022/05/27 10:55:03;;;;;;;;;;;27.50;41.10;;;;;;5094078;28;949;-36
2022/05/27 11:03:30;;;;;;;;;;;27.50;41.10;;;;;;5031795;28;1118;-37
2022/05/27 11:06:07;;;;;;;;;;;27.50;40.90;;;;;;5083338;28;937;-40
2022/05/27 11:08:34;;;;;;;;;;;27.50;41.20;;;;;;5096438;28;992;-40
2022/05/27 11:11:09;;;;;;;;;;;27.50;41.00;;;;;;5097245;28;952;-37
2022/05/27 11:16:52;;;;;;;;;;;27.50;41.00;;;;;;5096652;28;898;-38
2022/05/27 11:19:26;;;;;;;;;;;27.50;41.00;;;;;;5096427;28;1988;-37
2022/05/27 11:21:59;;;;;;;;;;;27.50;41.00;;;;;;5097336;28;1021;-36
2022/05/27 11:24:50;;;;;;;;;;;27.50;41.00;;;;;;5097125;28;1028;-37
2022/05/27 11:27:22;;;;;;;;;;;27.50;40.90;;;;;;5097805;28;1023;-37
2022/05/27 11:29:57;;;;;;;;;;;27.50;41.00;;;;;;5097003;28;1008;-39
2022/05/27 11:32:35;;;;;;;;;;;27.50;41.20;;;;;;5097848;28;993;-38
2022/05/27 11:35:05;;;;;;;;;;;27.50;41.00;;;;;;5096312;28;1015;-39
2022/05/27 11:37:44;;;;;;;;;;;27.50;40.90;;;;;;5096228;28;1027;-39
2022/05/27 11:40:23;;;;;;;;;;;27.50;41.00;;;;;;5095450;28;948;-36
2022/05/27 11:42:56;;;;;;;;;;;27.50;41.00;;;;;;5095637;28;948;-38
2022/05/27 11:45:24;;;;;;;;;;;27.60;41.10;;;;;;5095420;28;968;-36
2022/05/27 11:48:03;;;;;;;;;;;27.60;41.10;;;;;;5095711;28;1570;-37
2022/05/27 11:50:51;;;;;;;;;;;27.60;41.00;;;;;;5096309;28;932;-39
2022/05/27 11:53:25;;;;;;;;;;;27.60;41.10;;;;;;5069905;28;1129;-39
2022/05/27 11:55:58;;;;;;;;;;;27.60;41.10;;;;;;5095836;28;1020;-39
2022/05/27 11:58:27;;;;;;;;;;;27.60;41.00;;;;;;5092466;28;1918;-39
2022/05/27 12:00:57;;;;;;;;;;;27.60;40.90;;;;;;5094456;28;1268;-39
2022/05/27 12:03:30;;;;;;;;;;;27.60;40.90;;;;;;5096140;28;1036;-37
2022/05/27 12:05:59;;;;;;;;;;;27.60;41.10;;;;;;5095711;28;945;-38
2022/05/27 12:08:29;;;;;;;;;;;27.60;40.90;;;;;;5096563;28;1077;-38
2022/05/27 12:10:59;;;;;;;;;;;27.60;41.00;;;;;;5095852;28;999;-40
2022/05/27 12:13:29;;;;;;;;;;;27.60;41.00;;;;;;5098324;28;1024;-39
2022/05/27 12:15:58;;;;;;;;;;;27.60;40.90;;;;;;5095773;28;924;-39
2022/05/27 12:18:26;;;;;;;;;;;27.60;41.00;;;;;;5095993;28;1894;-37
2022/05/27 12:20:55;;;;;;;;;;;27.60;40.90;;;;;;5095622;28;1011;-36
2022/05/27 12:23:23;;;;;;;;;;;27.60;40.90;;;;;;5094240;28;1123;-37
2022/05/27 12:25:53;;;;;;;;;;;27.60;40.90;;;;;;5094273;28;969;-37
2022/05/27 12:28:27;;;;;;;;;;;27.60;40.90;;;;;;5095828;28;982;-36
2022/05/27 12:30:55;;;;;;;;;;;27.60;40.80;;;;;;5095408;28;995;-38
2022/05/27 12:33:24;;;;;;;;;;;27.60;40.80;;;;;;5093098;28;929;-37
2022/05/27 12:35:59;;;;;;;;;;;27.60;40.90;;;;;;5094523;28;1023;-37
2022/05/27 12:38:27;;;;;;;;;;;27.70;40.80;;;;;;5094870;28;1975;-36
2022/05/27 12:40:54;;;;;;;;;;;27.60;40.80;;;;;;5095370;28;948;-40
2022/05/27 12:43:27;;;;;;;;;;;27.60;40.80;;;;;;5094189;28;1138;-39
2022/05/27 12:45:54;;;;;;;;;;;27.60;40.80;;;;;;5094113;28;872;-37
2022/05/27 12:48:29;;;;;;;;;;;27.60;40.80;;;;;;5094546;28;952;-39
2022/05/27 12:50:58;;;;;;;;;;;27.70;40.90;;;;;;5094321;28;1060;-37
2022/05/27 12:53:44;;;;;;;;;;;27.70;40.80;;;;;;5095409;28;1026;-37
2022/05/27 13:02:33;;;;;;;;;;;27.70;40.80;;;;;;5094234;28;883;-37
2022/05/27 13:05:01;;;;;;;;;;;27.60;40.80;;;;;;5095998;28;972;-37
2022/05/27 13:07:44;;;;;;;;;;;27.70;40.80;;;;;;5096934;28;1100;-39
2022/05/27 13:10:28;;;;;;;;;;;27.70;40.80;;;;;;5095812;28;932;-40
2022/05/27 13:12:58;;;;;;;;;;;27.70;40.80;;;;;;5084315;28;1012;-38
2022/05/27 13:15:31;;;;;;;;;;;27.70;42.00;;;;;;5095000;28;928;-37
2022/05/27 13:18:08;;;;;;;;;;;27.60;40.70;;;;;;5093779;28;945;-37
2022/05/27 13:20:45;;;;;;;;;;;27.70;40.70;;;;;;5093681;28;1000;-38
2022/05/27 13:23:15;;;;;;;;;;;27.70;40.70;;;;;;5092985;28;963;-38
2022/05/27 13:25:43;;;;;;;;;;;27.70;40.60;;;;;;5092303;28;1007;-38
2022/05/27 13:28:11;;;;;;;;;;;27.70;40.70;;;;;;5094938;28;2163;-41
2022/05/27 13:30:58;;;;;;;;;;;27.70;40.60;;;;;;5094772;28;925;-41
2022/05/27 13:33:26;;;;;;;;;;;27.70;40.70;;;;;;5094367;28;1281;-40
2022/05/27 13:35:55;;;;;;;;;;;27.80;35.40;;;;;;5094868;28;988;-38
2022/05/27 13:38:25;;;;;;;;;;;27.90;34.40;;;;;;5094153;28;1909;-44
2022/05/27 13:40:52;;;;;;;;;;;27.80;32.80;;;;;;5095641;28;908;-44
2022/05/27 13:43:20;;;;;;;;;;;27.70;34.20;;;;;;5095917;28;999;-43
2022/05/27 13:45:49;;;;;;;;;;;27.70;34.90;;;;;;5095853;28;1020;-44
2022/05/27 13:48:22;;;;;;;;;;;27.70;35.80;;;;;;5095907;28;1098;-44
2022/05/27 13:50:50;;;;;;;;;;;27.70;36.50;;;;;;5095095;28;948;-44
2022/05/27 13:53:21;;;;;;;;;;;27.70;37.20;;;;;;5093427;28;997;-45
2022/05/27 13:55:51;;;;;;;;;;;27.70;37.70;;;;;;5092200;28;972;-45
2022/05/27 13:58:19;;;;;;;;;;;27.80;37.90;;;;;;5093334;28;877;-44
2022/05/27 14:00:46;;;;;;;;;;;27.80;38.30;;;;;;5093185;28;1244;-44
2022/05/27 14:03:23;;;;;;;;;;;27.80;38.50;;;;;;5091953;28;1336;-44
2022/05/27 14:05:56;;;;;;;;;;;27.90;38.90;;;;;;5094041;28;999;-44
2022/05/27 14:08:33;;;;;;;;;;;27.90;39.00;;;;;;5094627;28;1112;-44
2022/05/27 14:11:01;;;;;;;;;;;27.90;39.10;;;;;;5095414;28;869;-44
2022/05/27 14:13:29;;;;;;;;;;;27.90;39.10;;;;;;5095550;28;940;-44
2022/05/27 14:15:56;;;;;;;;;;;27.90;39.20;;;;;;5094382;28;928;-44
2022/05/27 14:18:30;;;;;;;;;;;28.00;39.20;;;;;;5095692;28;1187;-44
2022/05/27 14:23:51;;;;;;;;;;;28.00;40.30;;;;;;5058264;28;1078;-43
2022/05/27 14:26:20;;;;;;;;;;;28.10;39.40;;;;;;5092270;28;1014;-45
2022/05/27 14:28:48;;;;;;;;;;;28.00;39.50;;;;;;5094368;28;1226;-44
2022/05/27 14:31:17;;;;;;;;;;;28.00;39.50;;;;;;5094299;28;1000;-46
2022/05/27 14:33:45;;;;;;;;;;;28.00;39.50;;;;;;5093223;28;2119;-46
2022/05/27 14:36:13;;;;;;;;;;;28.00;39.50;;;;;;5093119;28;935;-46
2022/05/27 14:38:41;;;;;;;;;;;28.00;39.40;;;;;;5093712;28;1898;-46
2022/05/27 14:41:10;;;;;;;;;;;28.10;39.30;;;;;;5093054;28;956;-46
2022/05/27 14:43:40;;;;;;;;;;;28.10;39.10;;;;;;5094334;28;904;-46
2022/05/27 14:46:15;;;;;;;;;;;28.10;39.10;;;;;;5094080;28;999;-47
2022/05/27 14:48:43;;;;;;;;;;;28.10;39.00;;;;;;5093828;28;924;-47
2022/05/27 14:51:15;;;;;;;;;;;28.10;38.80;;;;;;5094031;28;1853;-46
2022/05/27 14:53:42;;;;;;;;;;;28.20;38.70;;;;;;5093137;28;921;-46
2022/05/27 14:56:12;;;;;;;;;;;28.20;39.70;;;;;;5095795;28;1477;-46
2022/05/27 14:58:41;;;;;;;;;;;28.20;38.40;;;;;;5097467;28;1985;-46
2022/05/27 15:01:13;;;;;;;;;;;28.20;38.30;;;;;;5097314;28;1273;-47
2022/05/27 15:03:40;;;;;;;;;;;28.20;37.60;;;;;;5096681;28;946;-44
2022/05/27 15:06:09;;;;;;;;;;;28.20;36.20;;;;;;5095184;28;995;-44
2022/05/27 15:08:36;;;;;;;;;;;28.10;34.80;;;;;;5096836;28;1023;-44
2022/05/27 15:11:05;;;;;;;;;;;28.10;35.80;;;;;;5098028;28;1367;-44
2022/05/27 15:13:43;;;;;;;;;;;28.10;35.30;;;;;;5097817;28;1394;-43
2022/05/27 15:16:13;;;;;;;;;;;28.10;34.50;;;;;;5097732;28;892;-44
2022/05/27 15:18:43;;;;;;;;;;;28.00;34.10;;;;;;5098174;28;1055;-43
2022/05/27 15:21:13;;;;;;;;;;;28.10;33.50;;;;;;5097847;28;1909;-44
2022/05/27 15:23:46;;;;;;;;;;;28.10;33.90;;;;;;5098195;28;921;-44
2022/05/27 15:34:36;;;;;;;;;;;28.00;33.30;;;;;;5097137;28;619;-44